Time;durP1;ratioP1;P1;durP2;ratioP2;P2;SDS_P1;SDS_P2;PMS_P1;PMS_P2;Temp;Humidity;BMP_temperature;BMP_pressure;BME280_temperature;BME280_humidity;BME280_pressure;Samples;Min_cycle;Max_cycle;Signal;HPM_P1;HPM_P2
2021/09/02 00:02:09;;;;;;;5.07;3.87;;;;;;;16.10;100.00;96562.41;5082900;28;20599;-80
2021/09/02 00:04:36;;;;;;;3.70;3.40;;;;;;;16.13;100.00;96555.91;5087734;28;20203;-80
2021/09/02 00:09:45;;;;;;;3.87;3.50;;;;;;;15.98;100.00;96549.81;5284506;22;20582;-80
2021/09/02 00:12:12;;;;;;;5.60;3.93;;;;;;;15.98;100.00;96552.47;5089361;28;20204;-81
2021/09/02 00:14:40;;;;;;;5.63;4.20;;;;;;;15.93;100.00;96548.56;5095428;28;20207;-81
2021/09/02 00:17:07;;;;;;;5.93;3.90;;;;;;;15.90;100.00;96556.88;5095238;28;20733;-80
2021/09/02 00:19:36;;;;;;;3.67;3.17;;;;;;;15.87;100.00;96546.63;5095596;28;20194;-80
2021/09/02 00:22:03;;;;;;;4.73;3.43;;;;;;;15.84;100.00;96536.41;5095102;28;20723;-81
2021/09/02 00:24:30;;;;;;;4.33;3.17;;;;;;;15.78;100.00;96541.63;5095153;28;20201;-80
2021/09/02 00:26:59;;;;;;;7.13;3.80;;;;;;;15.88;100.00;96542.97;5095334;28;20218;-81
2021/09/02 00:29:27;;;;;;;3.90;3.50;;;;;;;15.85;100.00;96546.00;5095049;28;20686;-80
2021/09/02 00:31:54;;;;;;;6.13;4.17;;;;;;;15.89;100.00;96543.78;5095504;28;20236;-81
2021/09/02 00:34:21;;;;;;;5.67;3.50;;;;;;;15.84;100.00;96541.69;5094707;28;20710;-80
2021/09/02 00:36:48;;;;;;;3.23;2.93;;;;;;;15.79;100.00;96546.72;5095423;28;20657;-81
2021/09/02 00:39:16;;;;;;;4.20;3.43;;;;;;;15.78;100.00;96552.22;5094810;28;20204;-80
2021/09/02 00:41:43;;;;;;;5.03;3.20;;;;;;;15.75;100.00;96556.06;5095059;28;20208;-80
2021/09/02 00:44:12;;;;;;;7.13;3.20;;;;;;;15.74;100.00;96565.00;5094952;28;20275;-80
2021/09/02 00:46:39;;;;;;;8.43;3.60;;;;;;;15.69;100.00;96560.28;5094920;28;20291;-80
2021/09/02 00:49:07;;;;;;;7.07;3.20;;;;;;;15.69;100.00;96570.88;5094994;28;20592;-80
2021/09/02 00:51:34;;;;;;;4.63;3.63;;;;;;;15.69;100.00;96573.53;5094749;28;20222;-80
2021/09/02 00:54:02;;;;;;;3.60;3.20;;;;;;;15.64;100.00;96567.91;5094727;28;20188;-80
2021/09/02 00:56:29;;;;;;;3.23;2.97;;;;;;;15.64;100.00;96573.19;5094973;28;20197;-79
2021/09/02 00:58:56;;;;;;;5.70;3.80;;;;;;;15.55;100.00;96570.81;5094489;28;20288;-80
2021/09/02 01:01:25;;;;;;;5.10;3.63;;;;;;;15.56;100.00;96577.78;5094311;28;20227;-80
2021/09/02 01:03:52;;;;;;;4.00;3.60;;;;;;;15.55;100.00;96573.47;5094403;28;20551;-80
2021/09/02 01:06:20;;;;;;;4.23;2.90;;;;;;;15.58;100.00;96579.22;5094525;28;20287;-81
2021/09/02 01:08:47;;;;;;;4.80;3.23;;;;;;;15.55;100.00;96584.06;5094088;28;20715;-80
2021/09/02 01:11:15;;;;;;;4.97;3.00;;;;;;;15.58;100.00;96589.00;5094842;28;20197;-81
2021/09/02 01:13:42;;;;;;;4.63;3.53;;;;;;;15.53;100.00;96581.63;5094359;28;20189;-80
2021/09/02 01:16:09;;;;;;;3.80;3.10;;;;;;;15.58;100.00;96581.06;5095934;28;20200;-80
2021/09/02 01:18:38;;;;;;;6.13;3.30;;;;;;;15.55;100.00;96573.47;5094435;28;20976;-80
2021/09/02 01:21:06;;;;;;;5.40;3.73;;;;;;;15.61;100.00;96575.41;5094211;28;20196;-80
2021/09/02 01:23:37;;;;;;;7.87;3.93;;;;;;;15.52;100.00;96574.69;5093468;28;20308;-80
2021/09/02 01:26:15;;;;;;;3.87;3.00;;;;;;;15.58;100.00;96563.31;5093899;28;20653;-80
2021/09/02 01:28:43;;;;;;;4.00;3.43;;;;;;;15.44;100.00;96572.91;5093940;28;20275;-80
2021/09/02 01:31:12;;;;;;;3.30;2.87;;;;;;;15.35;100.00;96574.00;5093968;28;20193;-80
2021/09/02 01:33:44;;;;;;;4.10;3.23;;;;;;;15.31;100.00;96570.09;5093582;28;20232;-80
2021/09/02 01:38:48;;;;;;;6.67;3.60;;;;;;;15.26;100.00;96558.38;5158427;22;20320;-79
2021/09/02 01:41:16;;;;;;;5.40;3.30;;;;;;;15.38;100.00;96549.00;5093138;28;20204;-79
2021/09/02 01:43:43;;;;;;;3.87;2.97;;;;;;;15.36;100.00;96549.16;5093344;28;20236;-79
2021/09/02 01:46:10;;;;;;;6.43;3.20;;;;;;;15.35;100.00;96541.41;5093582;28;20723;-79
2021/09/02 01:48:38;;;;;;;3.73;3.03;;;;;;;15.29;100.00;96536.84;5093553;28;20664;-79
2021/09/02 01:51:06;;;;;;;3.73;3.17;;;;;;;15.28;100.00;96535.22;5093693;28;20234;-79
2021/09/02 01:53:33;;;;;;;4.10;3.00;;;;;;;15.30;100.00;96533.19;5093697;28;20254;-79
2021/09/02 01:56:02;;;;;;;3.20;2.90;;;;;;;15.26;100.00;96535.38;5093346;28;20253;-79
2021/09/02 01:58:31;;;;;;;3.20;2.90;;;;;;;15.25;100.00;96536.38;5093298;28;20207;-79
2021/09/02 02:00:59;;;;;;;4.43;2.90;;;;;;;15.26;100.00;96537.19;5093462;28;20199;-80
2021/09/02 02:03:26;;;;;;;3.30;3.00;;;;;;;15.20;100.00;96538.72;5093156;28;20311;-79
2021/09/02 02:05:53;;;;;;;2.77;2.53;;;;;;;15.24;100.00;96550.63;5093336;28;20200;-79
2021/09/02 02:08:21;;;;;;;4.43;3.10;;;;;;;15.23;100.00;96552.44;5093243;28;20257;-79
2021/09/02 02:10:48;;;;;;;4.87;2.50;;;;;;;15.22;100.00;96548.16;5093185;28;20192;-79
2021/09/02 02:13:17;;;;;;;4.47;2.63;;;;;;;15.13;100.00;96546.56;5092949;28;20236;-79
2021/09/02 02:15:44;;;;;;;4.13;2.90;;;;;;;14.90;100.00;96538.69;5093462;28;20284;-78
2021/09/02 02:18:12;;;;;;;3.87;2.87;;;;;;;14.82;100.00;96546.69;5092717;28;20257;-79
2021/09/02 02:20:39;;;;;;;3.77;2.77;;;;;;;14.77;100.00;96549.06;5093066;28;20202;-79
2021/09/02 02:23:07;;;;;;;5.63;2.80;;;;;;;14.73;100.00;96545.13;5092796;28;20221;-78
2021/09/02 02:25:34;;;;;;;3.60;2.40;;;;;;;14.68;100.00;96534.22;5092768;28;20233;-78
2021/09/02 02:28:02;;;;;;;3.17;2.70;;;;;;;14.64;100.00;96532.94;5092737;28;20200;-78
2021/09/02 02:30:31;;;;;;;3.70;2.83;;;;;;;14.59;100.00;96536.13;5092914;28;20204;-78
2021/09/02 02:32:58;;;;;;;6.07;3.17;;;;;;;14.41;100.00;96536.41;5093022;28;20581;-79
2021/09/02 02:35:25;;;;;;;4.20;3.00;;;;;;;14.44;100.00;96544.00;5092542;28;20192;-78
2021/09/02 02:37:53;;;;;;;3.10;2.60;;;;;;;14.45;100.00;96536.88;5092363;28;20239;-79
2021/09/02 02:40:20;;;;;;;2.97;2.67;;;;;;;14.41;100.00;96538.19;5092697;28;20576;-79
2021/09/02 02:42:48;;;;;;;4.53;2.90;;;;;;;14.37;100.00;96532.44;5092237;28;20275;-79
2021/09/02 02:45:16;;;;;;;2.60;2.40;;;;;;;14.30;100.00;96549.19;5092812;28;20219;-79
2021/09/02 02:47:45;;;;;;;2.80;2.40;;;;;;;14.32;100.00;96532.16;5092393;28;20617;-79
2021/09/02 02:50:13;;;;;;;4.30;2.93;;;;;;;14.29;100.00;96537.78;5092596;28;20203;-81
2021/09/02 02:52:43;;;;;;;3.70;2.63;;;;;;;14.34;100.00;96534.63;5092479;28;20580;-81
2021/09/02 02:55:11;;;;;;;3.13;2.70;;;;;;;14.38;100.00;96543.88;5092499;28;20256;-81
2021/09/02 02:57:39;;;;;;;2.70;2.50;;;;;;;14.27;100.00;96539.81;5092220;28;20200;-81
2021/09/02 03:00:08;;;;;;;4.93;2.70;;;;;;;14.26;100.00;96538.97;5092440;28;20664;-81
2021/09/02 03:02:35;;;;;;;4.43;2.87;;;;;;;14.25;100.00;96534.69;5091970;28;20200;-80
2021/09/02 03:05:05;;;;;;;2.40;2.20;;;;;;;14.26;100.00;96527.56;5092071;28;20676;-81
2021/09/02 03:07:34;;;;;;;4.30;3.13;;;;;;;14.25;100.00;96528.56;5092099;28;20628;-81
2021/09/02 03:10:02;;;;;;;5.30;3.10;;;;;;;14.27;100.00;96526.59;5092237;28;20698;-81
2021/09/02 03:12:29;;;;;;;6.63;3.10;;;;;;;14.34;100.00;96521.41;5092344;28;20196;-80
2021/09/02 03:14:56;;;;;;;2.87;2.57;;;;;;;14.51;100.00;96528.25;5091951;28;20279;-81
2021/09/02 03:17:25;;;;;;;2.70;2.50;;;;;;;14.44;100.00;96519.34;5091993;28;20196;-81
2021/09/02 03:19:53;;;;;;;5.77;3.13;;;;;;;14.55;100.00;96528.72;5092141;28;20734;-82
2021/09/02 03:22:22;;;;;;;3.17;2.53;;;;;;;14.46;100.00;96525.28;5091498;28;20196;-82
2021/09/02 03:24:49;;;;;;;3.63;3.07;;;;;;;14.48;100.00;96521.47;5091771;28;20632;-82
2021/09/02 03:27:16;;;;;;;4.33;2.50;;;;;;;14.44;100.00;96528.13;5092023;28;20200;-81
2021/09/02 03:29:44;;;;;;;2.63;2.27;;;;;;;14.43;100.00;96526.47;5091920;28;20557;-81
2021/09/02 03:32:11;;;;;;;4.80;2.97;;;;;;;14.42;100.00;96530.09;5091731;28;20734;-83
2021/09/02 03:34:39;;;;;;;5.30;2.67;;;;;;;14.38;100.00;96530.66;5091682;28;20192;-82
2021/09/02 03:37:06;;;;;;;2.90;2.70;;;;;;;14.32;100.00;96528.69;5091626;28;20243;-81
2021/09/02 03:39:35;;;;;;;3.07;2.77;;;;;;;14.32;100.00;96518.94;5091827;28;20257;-81
2021/09/02 03:42:03;;;;;;;2.70;2.37;;;;;;;14.28;100.00;96529.03;5091442;28;20204;-81
2021/09/02 03:44:31;;;;;;;2.97;2.67;;;;;;;14.29;100.00;96537.78;5092135;28;20224;-81
2021/09/02 03:46:58;;;;;;;2.63;2.43;;;;;;;14.28;100.00;96538.81;5092000;28;20283;-82
2021/09/02 03:49:26;;;;;;;2.67;2.40;;;;;;;14.33;100.00;96536.44;5095923;28;20200;-81
2021/09/02 03:51:53;;;;;;;4.67;2.63;;;;;;;14.36;100.00;96537.91;5095574;28;20192;-81
2021/09/02 03:54:21;;;;;;;4.97;2.87;;;;;;;14.36;100.00;96541.38;5095809;28;20198;-81
2021/09/02 03:56:50;;;;;;;2.57;2.37;;;;;;;14.37;100.00;96547.50;5095798;28;20204;-81
2021/09/02 03:59:17;;;;;;;3.73;2.73;;;;;;;14.35;100.00;96547.69;5093583;28;20204;-80
2021/09/02 04:01:44;;;;;;;4.93;3.03;;;;;;;14.57;100.00;96559.28;5094003;28;20200;-80
2021/09/02 04:04:12;;;;;;;2.80;2.57;;;;;;;14.62;100.00;96561.41;5094212;28;20303;-79
2021/09/02 04:06:39;;;;;;;2.70;2.50;;;;;;;14.78;100.00;96565.75;5095690;28;20196;-79
2021/09/02 04:09:07;;;;;;;3.10;2.80;;;;;;;14.85;100.00;96572.78;5095451;28;20219;-78
2021/09/02 04:11:34;;;;;;;3.03;2.10;;;;;;;14.79;100.00;96577.97;5095583;28;20203;-78
2021/09/02 04:14:03;;;;;;;3.87;2.90;;;;;;;14.89;100.00;96583.84;5095710;28;20574;-78
2021/09/02 04:16:31;;;;;;;4.93;2.57;;;;;;;14.95;100.00;96583.16;5095545;28;20184;-78
2021/09/02 04:18:58;;;;;;;3.13;2.80;;;;;;;14.74;100.00;96586.44;5095045;28;20243;-78
2021/09/02 04:21:25;;;;;;;3.73;2.83;;;;;;;14.67;100.00;96588.97;5095635;28;20273;-78
2021/09/02 04:23:53;;;;;;;3.33;2.53;;;;;;;14.67;100.00;96585.50;5095117;28;20215;-78
2021/09/02 04:26:20;;;;;;;2.77;2.57;;;;;;;14.73;100.00;96587.47;5095247;28;20192;-78
2021/09/02 04:28:47;;;;;;;2.43;2.23;;;;;;;14.89;100.00;96578.56;5094751;28;20295;-78
2021/09/02 04:31:16;;;;;;;2.80;2.60;;;;;;;14.98;100.00;96588.91;5095272;28;20188;-78
2021/09/02 04:33:44;;;;;;;2.80;2.60;;;;;;;14.97;100.00;96594.38;5094960;28;20255;-78
2021/09/02 04:36:11;;;;;;;4.97;2.47;;;;;;;14.99;100.00;96595.84;5095123;28;20200;-78
2021/09/02 04:38:39;;;;;;;2.97;2.70;;;;;;;14.83;100.00;96590.69;5094488;28;20594;-78
2021/09/02 04:41:06;;;;;;;7.73;2.67;;;;;;;14.73;100.00;96592.75;5094989;28;20196;-77
2021/09/02 04:43:34;;;;;;;2.63;2.43;;;;;;;14.67;100.00;96594.25;5094665;28;20224;-78
2021/09/02 04:46:01;;;;;;;2.60;2.40;;;;;;;14.66;100.00;96589.16;5094903;28;20196;-78
2021/09/02 04:48:30;;;;;;;4.03;2.53;;;;;;;14.77;100.00;96591.38;5094822;28;20245;-78
2021/09/02 04:50:58;;;;;;;3.53;2.90;;;;;;;14.88;100.00;96598.09;5094817;28;20192;-77
2021/09/02 04:53:25;;;;;;;2.73;2.53;;;;;;;14.99;100.00;96603.78;5094530;28;20664;-78
2021/09/02 04:55:52;;;;;;;2.60;2.40;;;;;;;15.03;100.00;96608.72;5094488;28;20205;-78
2021/09/02 04:58:20;;;;;;;6.50;2.60;;;;;;;14.97;100.00;96603.16;5093942;28;20249;-78
2021/09/02 05:00:47;;;;;;;2.57;2.37;;;;;;;15.05;100.00;96604.91;5093973;28;20737;-78
2021/09/02 05:03:15;;;;;;;3.93;2.73;;;;;;;15.08;100.00;96603.72;5094325;28;20257;-78
2021/09/02 05:05:44;;;;;;;4.10;2.30;;;;;;;15.08;100.00;96617.78;5094311;28;20235;-77
2021/09/02 05:08:11;;;;;;;5.00;2.53;;;;;;;15.20;100.00;96605.75;5094282;28;20196;-78
2021/09/02 05:10:38;;;;;;;4.23;2.67;;;;;;;15.30;100.00;96613.44;5094609;28;20222;-78
2021/09/02 05:13:06;;;;;;;4.30;2.53;;;;;;;15.41;100.00;96618.31;5094515;28;20257;-78
2021/09/02 05:15:33;;;;;;;2.63;2.43;;;;;;;15.43;100.00;96624.25;5094142;28;20193;-78
2021/09/02 05:18:01;;;;;;;6.40;2.20;;;;;;;15.42;100.00;96616.50;5094136;28;20691;-78
2021/09/02 05:20:28;;;;;;;4.40;2.80;;;;;;;15.53;100.00;96624.00;5094308;28;20206;-77
2021/09/02 05:22:57;;;;;;;2.57;2.13;;;;;;;15.50;100.00;96628.84;5093865;28;20667;-78
2021/09/02 05:25:24;;;;;;;7.57;2.77;;;;;;;15.62;100.00;96616.78;5094164;28;20228;-77
2021/09/02 05:27:52;;;;;;;2.93;2.40;;;;;;;15.65;100.00;96617.22;5093979;28;20254;-78
2021/09/02 05:30:19;;;;;;;2.83;2.63;;;;;;;15.77;100.00;96617.66;5094443;28;20192;-78
2021/09/02 05:32:47;;;;;;;4.07;2.40;;;;;;;15.88;100.00;96629.63;5093959;28;20207;-78
2021/09/02 05:35:15;;;;;;;3.93;2.50;;;;;;;15.99;100.00;96633.63;5093957;28;20591;-77
2021/09/02 05:37:43;;;;;;;6.00;2.43;;;;;;;16.02;100.00;96642.06;5093638;28;20228;-78
2021/09/02 05:40:13;;;;;;;3.73;2.53;;;;;;;16.10;100.00;96636.63;5093620;28;20204;-78
2021/09/02 05:42:41;;;;;;;4.13;3.20;;;;;;;16.19;100.00;96640.03;5094046;28;20200;-78
2021/09/02 05:45:09;;;;;;;3.00;2.47;;;;;;;16.36;100.00;96646.78;5093721;28;20228;-78
2021/09/02 05:47:37;;;;;;;4.80;2.17;;;;;;;16.40;100.00;96647.22;5093893;28;20599;-78
2021/09/02 05:50:05;;;;;;;4.20;2.60;;;;;;;16.50;100.00;96639.78;5093431;28;20204;-78
2021/09/02 05:52:33;;;;;;;3.87;2.13;;;;;;;16.59;100.00;96640.50;5093533;28;20265;-78
2021/09/02 05:55:00;;;;;;;3.43;2.37;;;;;;;16.65;100.00;96645.06;5093671;28;20193;-78
2021/09/02 05:57:29;;;;;;;1.93;1.83;;;;;;;16.80;100.00;96653.84;5093407;28;20192;-78
2021/09/02 05:59:57;;;;;;;4.60;2.50;;;;;;;16.91;100.00;96657.03;5093546;28;20778;-78
2021/09/02 06:02:24;;;;;;;6.90;2.50;;;;;;;17.11;100.00;96650.88;5093050;28;20233;-78
2021/09/02 06:04:52;;;;;;;3.53;2.33;;;;;;;17.24;100.00;96654.66;5093380;28;20221;-78
2021/09/02 06:07:19;;;;;;;2.40;2.20;;;;;;;17.22;100.00;96657.53;5093125;28;20577;-78
2021/09/02 06:09:47;;;;;;;4.37;2.43;;;;;;;17.42;100.00;96660.31;5092997;28;20199;-78
2021/09/02 06:12:14;;;;;;;2.03;1.87;;;;;;;17.45;100.00;96659.94;5092861;28;20739;-78
2021/09/02 06:14:43;;;;;;;2.73;2.30;;;;;;;17.60;100.00;96659.88;5093282;28;20246;-78
2021/09/02 06:17:10;;;;;;;3.83;2.53;;;;;;;17.58;100.00;96668.03;5092970;28;20199;-78
2021/09/02 06:19:38;;;;;;;6.00;2.53;;;;;;;17.65;100.00;96673.41;5093167;28;20195;-78
2021/09/02 06:22:05;;;;;;;3.40;2.37;;;;;;;17.90;100.00;96665.00;5092609;28;20203;-78
2021/09/02 06:24:33;;;;;;;2.03;1.93;;;;;;;17.87;100.00;96674.19;5093068;28;20224;-78
2021/09/02 06:27:00;;;;;;;3.10;2.30;;;;;;;17.74;100.00;96682.88;5093054;28;20207;-78
2021/09/02 06:29:27;;;;;;;3.57;2.07;;;;;;;17.72;100.00;96678.78;5093004;28;20561;-78
2021/09/02 06:31:57;;;;;;;4.73;2.57;;;;;;;17.74;100.00;96684.72;5092791;28;20705;-78
2021/09/02 06:34:24;;;;;;;2.33;2.13;;;;;;;17.90;100.00;96673.81;5092825;28;20199;-78
2021/09/02 06:36:51;;;;;;;1.97;1.87;;;;;;;17.98;100.00;96680.84;5092825;28;20203;-78
2021/09/02 06:39:19;;;;;;;2.27;2.00;;;;;;;18.15;100.00;96668.03;5092418;28;20200;-78
2021/09/02 06:41:46;;;;;;;2.30;2.10;;;;;;;18.25;100.00;96674.66;5092685;28;20238;-78
2021/09/02 06:44:14;;;;;;;2.13;1.93;;;;;;;18.27;100.00;96677.91;5092475;28;20224;-78
2021/09/02 06:46:41;;;;;;;2.07;1.87;;;;;;;18.39;100.00;96680.00;5092671;28;20750;-78
2021/09/02 06:49:10;;;;;;;2.60;2.20;;;;;;;18.62;100.00;96685.03;5092528;28;20226;-78
2021/09/02 06:51:39;;;;;;;3.63;2.20;;;;;;;18.71;100.00;96670.53;5092593;28;20250;-78
2021/09/02 06:54:06;;;;;;;2.00;1.87;;;;;;;18.59;100.00;96688.09;5092317;28;20199;-78
2021/09/02 06:56:34;;;;;;;4.70;2.23;;;;;;;18.82;100.00;96674.50;5092791;28;20196;-78
2021/09/02 06:59:02;;;;;;;1.80;1.70;;;;;;;18.94;100.00;96687.00;5092411;28;20192;-78
2021/09/02 07:01:29;;;;;;;2.23;2.03;;;;;;;19.10;100.00;96677.84;5092067;28;20195;-78
2021/09/02 07:03:57;;;;;;;2.20;2.00;;;;;;;19.21;100.00;96690.56;5092323;28;20257;-78
2021/09/02 07:06:25;;;;;;;4.83;2.33;;;;;;;19.42;100.00;96683.41;5092303;28;20253;-78
2021/09/02 07:08:53;;;;;;;2.97;1.83;;;;;;;19.43;100.00;96691.22;5092245;28;20599;-78
2021/09/02 07:11:20;;;;;;;2.00;1.80;;;;;;;19.48;100.00;96699.41;5092267;28;20675;-78
2021/09/02 07:13:48;;;;;;;2.60;2.00;;;;;;;19.65;100.00;96691.88;5092087;28;20192;-78
2021/09/02 07:16:15;;;;;;;5.83;1.80;;;;;;;19.70;100.00;96697.38;5092289;28;20196;-78
2021/09/02 07:18:43;;;;;;;2.23;1.90;;;;;;;19.73;100.00;96708.69;5091920;28;20196;-78
2021/09/02 07:21:10;;;;;;;6.57;2.10;;;;;;;19.73;100.00;96698.03;5092050;28;20204;-78
2021/09/02 07:23:39;;;;;;;1.77;1.67;;;;;;;19.95;100.00;96705.59;5091373;28;20188;-78
2021/09/02 07:26:07;;;;;;;3.27;2.03;;;;;;;20.18;100.00;96707.00;5092095;28;20224;-78
2021/09/02 07:28:35;;;;;;;2.33;1.80;;;;;;;20.43;100.00;96709.81;5091942;28;20236;-78
2021/09/02 07:31:02;;;;;;;2.37;2.17;;;;;;;20.51;100.00;96712.28;5092355;28;20299;-78
2021/09/02 07:33:30;;;;;;;2.50;2.07;;;;;;;20.63;100.00;96713.25;5091829;28;20192;-78
2021/09/02 07:35:57;;;;;;;1.70;1.60;;;;;;;20.89;100.00;96715.03;5091771;28;20196;-78
2021/09/02 07:38:25;;;;;;;2.40;1.70;;;;;;;20.73;100.00;96709.34;5091609;28;20271;-78
2021/09/02 07:40:54;;;;;;;4.10;2.43;;;;;;;20.98;100.00;96710.22;5092086;28;20228;-78
2021/09/02 07:43:21;;;;;;;2.10;1.90;;;;;;;21.19;100.00;96708.28;5091640;28;20196;-78
2021/09/02 07:45:49;;;;;;;2.87;2.47;;;;;;;21.36;100.00;96717.44;5091851;28;20603;-78
2021/09/02 07:48:16;;;;;;;3.57;1.80;;;;;;;21.25;100.00;96715.44;5091579;28;20632;-79
2021/09/02 07:50:43;;;;;;;3.17;1.93;;;;;;;21.20;100.00;96718.78;5091868;28;20196;-78
2021/09/02 07:53:11;;;;;;;3.37;2.43;;;;;;;21.44;100.00;96719.88;5091683;28;20703;-79
2021/09/02 07:55:38;;;;;;;1.53;1.43;;;;;;;21.74;100.00;96724.59;5091728;28;20200;-79
2021/09/02 07:58:07;;;;;;;2.70;1.60;;;;;;;21.76;100.00;96727.88;5091576;28;20235;-78
2021/09/02 08:00:36;;;;;;;3.00;1.70;;;;;;;22.20;100.00;96734.94;5091772;28;20661;-78
2021/09/02 08:03:04;;;;;;;3.23;2.17;;;;;;;22.49;100.00;96725.38;5091546;28;20206;-78
2021/09/02 08:05:32;;;;;;;2.07;1.70;;;;;;;22.20;100.00;96723.41;5091471;28;20260;-78
2021/09/02 08:07:59;;;;;;;1.83;1.73;;;;;;;21.77;100.00;96733.00;5091502;28;20226;-78
2021/09/02 08:10:27;;;;;;;2.30;2.07;;;;;;;21.69;100.00;96724.44;5091708;28;20207;-78
2021/09/02 08:12:55;;;;;;;2.00;1.80;;;;;;;22.19;100.00;96721.75;5091568;28;20201;-78
2021/09/02 08:15:25;;;;;;;2.33;1.70;;;;;;;22.51;100.00;96723.31;5091650;28;20218;-78
2021/09/02 08:17:58;;;;;;;1.57;1.47;;;;;;;22.72;100.00;96723.88;5091724;28;20196;-79
2021/09/02 08:20:25;;;;;;;4.57;1.57;;;;;;;22.17;100.00;96730.03;5091422;28;20180;-78
2021/09/02 08:22:53;;;;;;;1.80;1.57;;;;;;;22.14;100.00;96727.75;5091389;28;20204;-78
2021/09/02 08:25:21;;;;;;;2.73;1.40;;;;;;;22.68;100.00;96728.84;5091492;28;20277;-78
2021/09/02 08:27:49;;;;;;;2.73;1.83;;;;;;;22.43;100.00;96725.44;5091245;28;20200;-79
2021/09/02 08:30:19;;;;;;;2.37;1.60;;;;;;;22.45;100.00;96723.38;5091524;28;20202;-79
2021/09/02 08:32:49;;;;;;;2.60;1.70;;;;;;;22.82;100.00;96717.97;5091331;28;20249;-79
2021/09/02 08:35:18;;;;;;;1.90;1.40;;;;;;;23.56;100.00;96713.31;5095233;28;20242;-78
2021/09/02 08:37:46;;;;;;;1.43;1.33;;;;;;;23.73;100.00;96711.63;5094725;28;20224;-78
2021/09/02 08:40:16;;;;;;;1.43;1.33;;;;;;;23.32;100.00;96713.22;5094973;28;20197;-79
2021/09/02 08:42:46;;;;;;;2.33;1.33;;;;;;;22.44;100.00;96713.69;5094918;28;20660;-79
2021/09/02 08:45:14;;;;;;;1.90;1.80;;;;;;;23.02;100.00;96699.81;5095261;28;20665;-79
2021/09/02 08:47:46;;;;;;;1.60;1.50;;;;;;;23.11;100.00;96700.34;5094475;28;20254;-79
2021/09/02 08:50:16;;;;;;;2.63;1.37;;;;;;;23.48;100.00;96701.00;5095301;28;20185;-79
2021/09/02 08:52:44;;;;;;;1.23;1.20;;;;;;;23.53;100.00;96708.41;5094752;28;20189;-79
2021/09/02 08:55:12;;;;;;;2.43;1.30;;;;;;;22.95;100.00;96713.31;5094783;28;20685;-79
2021/09/02 08:57:40;;;;;;;1.13;1.13;;;;;;;23.75;100.00;96714.88;5094405;28;20249;-79
2021/09/02 09:00:10;;;;;;;1.60;1.50;;;;;;;24.09;100.00;96718.63;5094724;28;20257;-79
2021/09/02 09:02:43;;;;;;;3.00;1.90;;;;;;;24.16;100.00;96708.59;5094487;28;20593;-79
2021/09/02 09:05:13;;;;;;;1.87;1.40;;;;;;;23.96;100.00;96716.19;5094909;28;20241;-79
2021/09/02 09:07:44;;;;;;;1.10;1.10;;;;;;;24.14;100.00;96712.56;5094172;28;20200;-79
2021/09/02 09:10:15;;;;;;;1.63;1.53;;;;;;;24.42;100.00;96719.97;5094557;28;20185;-79
2021/09/02 09:12:44;;;;;;;1.30;1.20;;;;;;;24.51;100.00;96712.34;5094317;28;20227;-79
2021/09/02 09:15:18;;;;;;;1.50;1.40;;;;;;;24.37;100.00;96709.88;5094395;28;20196;-79
2021/09/02 09:17:46;;;;;;;3.17;1.50;;;;;;;24.10;100.00;96709.53;5094281;28;20180;-79
2021/09/02 09:20:18;;;;;;;1.57;1.30;;;;;;;24.04;100.00;96717.69;5094405;28;20200;-79
2021/09/02 09:22:49;;;;;;;1.40;1.30;;;;;;;24.02;100.00;96714.44;5094496;28;20188;-79
2021/09/02 09:25:17;;;;;;;1.53;1.43;;;;;;;24.00;100.00;96709.28;5094421;28;20224;-79
2021/09/02 09:27:48;;;;;;;1.73;1.27;;;;;;;23.84;100.00;96705.44;5094043;28;20620;-79
2021/09/02 09:30:17;;;;;;;1.50;1.40;;;;;;;24.29;100.00;96704.88;5093989;28;20192;-79
2021/09/02 09:32:48;;;;;;;1.10;1.10;;;;;;;24.32;100.00;96715.16;5094268;28;20224;-79
2021/09/02 09:35:18;;;;;;;1.47;1.37;;;;;;;24.40;100.00;96697.88;5094625;28;20196;-79
2021/09/02 09:37:50;;;;;;;1.10;1.00;;;;;;;24.64;100.00;96704.03;5093644;28;20231;-79
2021/09/02 09:40:23;;;;;;;1.63;1.53;;;;;;;24.66;100.00;96707.28;5093734;28;20188;-79
2021/09/02 09:43:03;;;;;;;2.60;1.37;;;;;;;24.55;100.00;96697.38;5093742;28;20234;-79
2021/09/02 09:45:47;;;;;;;1.60;1.50;;;;;;;24.76;100.00;96690.53;5093117;28;20261;-79
2021/09/02 09:48:47;;;;;;;1.90;1.63;;;;;;;24.56;100.00;96686.41;5093641;28;20184;-79
2021/09/02 09:51:17;;;;;;;1.20;1.20;;;;;;;24.35;100.00;96693.19;5031541;28;20195;-79
2021/09/02 09:53:48;;;;;;;2.07;1.87;;;;;;;24.56;100.00;96682.88;5031362;28;20273;-79
2021/09/02 09:56:19;;;;;;;1.37;1.27;;;;;;;25.06;100.00;96690.34;5031478;28;20214;-79
2021/09/02 09:58:47;;;;;;;2.70;1.20;;;;;;;25.51;100.00;96681.50;5031457;28;20202;-79
2021/09/02 10:01:15;;;;;;;2.27;1.33;;;;;;;25.19;100.00;96684.69;5030974;28;20248;-79
2021/09/02 10:03:43;;;;;;;1.60;1.50;;;;;;;24.84;100.00;96679.44;5031124;28;20654;-79
2021/09/02 10:06:12;;;;;;;3.43;1.37;;;;;;;25.00;100.00;96678.66;5031127;28;20230;-79
2021/09/02 10:08:41;;;;;;;1.47;1.37;;;;;;;24.70;100.00;96681.59;5031103;28;20194;-79
2021/09/02 10:11:12;;;;;;;2.40;1.40;;;;;;;24.67;100.00;96695.50;5030908;28;20241;-79
2021/09/02 10:13:40;;;;;;;1.30;1.20;;;;;;;24.63;100.00;96688.97;5030979;28;20183;-79
2021/09/02 10:16:08;;;;;;;1.37;1.27;;;;;;;24.91;100.00;96688.19;5031048;28;20195;-79
2021/09/02 10:18:42;;;;;;;1.43;1.33;;;;;;;24.89;100.00;96680.34;5030789;28;20199;-79
2021/09/02 10:21:10;;;;;;;3.40;1.30;;;;;;;24.86;100.00;96688.88;5036376;28;20277;-79
2021/09/02 10:23:38;;;;;;;2.07;1.30;;;;;;;24.95;100.00;96683.13;5092643;28;20246;-79
2021/09/02 10:26:06;;;;;;;1.17;1.17;;;;;;;24.79;100.00;96677.44;5092989;28;20227;-80
2021/09/02 10:28:36;;;;;;;1.30;1.20;;;;;;;24.51;100.00;96677.41;5092789;28;20189;-79
2021/09/02 10:31:06;;;;;;;7.20;1.40;;;;;;;24.81;100.00;96678.03;5093000;28;20189;-79
2021/09/02 10:33:41;;;;;;;1.43;1.10;;;;;;;25.14;100.00;96671.16;5092492;28;20228;-79
2021/09/02 10:36:40;;;;;;;3.67;1.40;;;;;;;25.12;100.00;96678.66;5092876;28;20573;-80
2021/09/02 10:39:08;;;;;;;1.60;1.50;;;;;;;24.92;100.00;96674.47;5088400;28;20287;-79
2021/09/02 10:41:47;;;;;;;1.07;1.07;;;;;;;24.87;100.00;96678.94;5092759;28;20200;-80
2021/09/02 10:44:18;;;;;;;1.33;1.23;;;;;;;25.18;100.00;96680.34;5092529;28;20200;-80
2021/09/02 10:46:46;;;;;;;1.37;1.27;;;;;;;24.51;100.00;96678.22;5092403;28;20215;-79
2021/09/02 10:49:16;;;;;;;1.10;1.10;;;;;;;24.99;100.00;96677.03;5092517;28;20200;-79
2021/09/02 10:51:45;;;;;;;2.50;1.20;;;;;;;25.27;100.00;96683.50;5092614;28;20203;-79
2021/09/02 10:54:19;;;;;;;1.83;1.30;;;;;;;25.38;100.00;96679.91;5092377;28;20679;-79
2021/09/02 10:57:05;;;;;;;1.20;1.10;;;;;;;25.33;100.00;96675.25;5091664;28;20185;-79
2021/09/02 10:59:48;;;;;;;1.40;1.30;;;;;;;25.41;100.00;96684.00;5092531;28;20180;-79
2021/09/02 11:02:42;;;;;;;1.10;1.07;;;;;;;24.86;100.00;96688.88;5092025;28;20636;-79
2021/09/02 11:05:16;;;;;;;1.43;1.33;;;;;;;23.86;100.00;96697.16;5092291;28;20647;-79
2021/09/02 11:07:48;;;;;;;1.30;1.20;;;;;;;23.41;100.00;96697.63;5092221;28;20179;-79
2021/09/02 11:10:18;;;;;;;1.10;1.10;;;;;;;23.59;100.00;96688.66;5092345;28;20184;-79
2021/09/02 11:12:46;;;;;;;2.07;1.10;;;;;;;24.72;100.00;96694.78;5092213;28;20181;-79
2021/09/02 11:15:23;;;;;;;1.40;1.30;;;;;;;24.13;100.00;96695.63;5092577;28;20626;-79
2021/09/02 11:17:56;;;;;;;1.10;1.10;;;;;;;23.75;100.00;96695.28;5092089;28;20270;-79
2021/09/02 11:20:24;;;;;;;1.50;1.40;;;;;;;23.55;100.00;96698.22;5092299;28;20184;-79
2021/09/02 11:22:52;;;;;;;1.50;1.40;;;;;;;23.72;100.00;96696.53;5091980;28;20253;-78
2021/09/02 11:25:19;;;;;;;1.53;1.43;;;;;;;23.77;100.00;96699.38;5092066;28;20257;-79
2021/09/02 11:27:47;;;;;;;1.40;1.20;;;;;;;24.23;100.00;96702.28;5091743;28;20232;-79
2021/09/02 11:30:17;;;;;;;1.47;1.37;;;;;;;23.83;100.00;96689.56;5092043;28;20293;-79
2021/09/02 11:32:52;;;;;;;1.07;1.03;;;;;;;23.48;100.00;96691.13;5092183;28;20205;-79
2021/09/02 11:35:20;;;;;;;1.43;1.33;;;;;;;23.40;100.00;96693.31;5092070;28;20188;-79
2021/09/02 11:37:47;;;;;;;2.17;1.20;;;;;;;23.09;100.00;96686.31;5091358;28;20239;-79